Time;durP1;ratioP1;P1;durP2;ratioP2;P2;SDS_P1;SDS_P2;PMS_P1;PMS_P2;Temp;Humidity;BMP_temperature;BMP_pressure;BME280_temperature;BME280_humidity;BME280_pressure;Samples;Min_cycle;Max_cycle;Signal;HPM_P1;HPM_P2
2021/01/20 00:00:35;;;;;;;;;;;7.00;99.90;;;;;;5104165;28;20329;-79
2021/01/20 00:03:00;;;;;;;;;;;7.00;99.90;;;;;;5102900;28;19997;-79
2021/01/20 00:05:26;;;;;;;;;;;7.00;99.90;;;;;;5101145;28;20371;-80
2021/01/20 00:07:51;;;;;;;;;;;7.00;99.90;;;;;;5121629;28;19960;-79
2021/01/20 00:10:17;;;;;;;;;;;7.00;99.90;;;;;;5120037;28;19915;-79
2021/01/20 00:12:45;;;;;;;;;;;6.90;99.90;;;;;;5107150;28;19995;-80
2021/01/20 00:15:12;;;;;;;;;;;6.80;99.90;;;;;;5123131;28;19912;-80
2021/01/20 00:17:37;;;;;;;;;;;6.60;99.90;;;;;;5119648;28;19915;-80
2021/01/20 00:20:04;;;;;;;;;;;6.50;99.90;;;;;;5104291;28;19937;-80
2021/01/20 00:22:29;;;;;;;;;;;6.30;99.90;;;;;;5123910;28;19953;-79
2021/01/20 00:24:55;;;;;;;;;;;6.30;99.90;;;;;;5104735;27;19907;-80
2021/01/20 00:27:20;;;;;;;;;;;6.30;99.90;;;;;;5126392;27;19907;-80
2021/01/20 00:29:46;;;;;;;;;;;6.30;99.90;;;;;;5109530;27;19943;-81
2021/01/20 00:32:11;;;;;;;;;;;6.20;99.90;;;;;;5106295;27;19931;-80
2021/01/20 00:34:36;;;;;;;;;;;6.30;99.90;;;;;;5106212;27;19915;-80
2021/01/20 00:37:02;;;;;;;;;;;6.30;99.90;;;;;;5125783;27;19912;-80
2021/01/20 00:39:27;;;;;;;;;;;6.30;99.90;;;;;;5130313;27;19907;-79
2021/01/20 00:41:53;;;;;;;;;;;6.30;99.90;;;;;;5115047;27;20434;-80
2021/01/20 00:44:18;;;;;;;;;;;6.30;99.90;;;;;;5125411;27;19930;-81
2021/01/20 00:46:44;;;;;;;;;;;6.30;99.90;;;;;;5112753;27;20390;-80
2021/01/20 00:49:09;;;;;;;;;;;6.30;99.90;;;;;;5123010;27;19908;-80
2021/01/20 00:51:35;;;;;;;;;;;6.30;99.90;;;;;;5124459;27;19915;-80
2021/01/20 00:54:00;;;;;;;;;;;6.30;99.90;;;;;;5106675;27;20283;-81
2021/01/20 00:56:25;;;;;;;;;;;6.40;99.90;;;;;;5125721;27;19915;-80
2021/01/20 00:58:51;;;;;;;;;;;6.40;99.90;;;;;;5122744;27;19919;-81
2021/01/20 01:01:16;;;;;;;;;;;6.50;99.90;;;;;;5127192;27;19912;-80
2021/01/20 01:03:42;;;;;;;;;;;6.50;99.90;;;;;;5126632;27;19917;-80
2021/01/20 01:06:08;;;;;;;;;;;6.50;99.90;;;;;;5127880;27;19961;-80
2021/01/20 01:08:33;;;;;;;;;;;6.50;99.90;;;;;;5121335;27;20423;-81
2021/01/20 01:10:59;;;;;;;;;;;6.60;99.90;;;;;;5124611;27;20355;-80
2021/01/20 01:13:24;;;;;;;;;;;6.60;99.90;;;;;;5123061;27;19954;-81
2021/01/20 01:15:50;;;;;;;;;;;6.60;99.90;;;;;;5120724;27;19908;-80
2021/01/20 01:18:15;;;;;;;;;;;6.60;99.90;;;;;;5104065;27;19915;-80
2021/01/20 01:20:41;;;;;;;;;;;6.60;99.90;;;;;;5105757;27;19911;-80
2021/01/20 01:23:06;;;;;;;;;;;6.60;99.90;;;;;;5109376;27;19931;-80
2021/01/20 01:25:31;;;;;;;;;;;6.60;99.90;;;;;;5126041;27;19908;-80
2021/01/20 01:27:57;;;;;;;;;;;6.60;99.90;;;;;;5109682;27;20286;-80
2021/01/20 01:30:23;;;;;;;;;;;6.60;99.90;;;;;;5108018;27;19979;-80
2021/01/20 01:32:48;;;;;;;;;;;6.60;99.90;;;;;;5127176;27;19908;-81
2021/01/20 01:35:14;;;;;;;;;;;6.60;99.90;;;;;;5124306;27;19908;-80
2021/01/20 01:37:39;;;;;;;;;;;6.60;99.90;;;;;;5125795;27;19936;-80
2021/01/20 01:40:05;;;;;;;;;;;6.70;99.90;;;;;;5106638;27;20002;-80
2021/01/20 01:42:30;;;;;;;;;;;6.70;99.90;;;;;;5105632;27;19956;-80
2021/01/20 01:44:56;;;;;;;;;;;6.70;99.90;;;;;;5099206;27;19911;-81
2021/01/20 01:47:22;;;;;;;;;;;6.70;99.90;;;;;;5107273;27;20002;-80
2021/01/20 01:49:47;;;;;;;;;;;6.70;99.90;;;;;;5125982;27;20381;-80
2021/01/20 01:52:13;;;;;;;;;;;6.70;99.90;;;;;;5122710;27;20389;-81
2021/01/20 01:54:39;;;;;;;;;;;6.70;99.90;;;;;;5125269;27;19922;-81
2021/01/20 01:57:05;;;;;;;;;;;6.70;99.90;;;;;;5127679;27;19908;-80
2021/01/20 01:59:30;;;;;;;;;;;6.70;99.90;;;;;;5122565;27;20059;-80
2021/01/20 02:01:56;;;;;;;;;;;6.70;99.90;;;;;;5123364;27;19911;-80
2021/01/20 02:04:21;;;;;;;;;;;6.70;99.90;;;;;;5125693;27;19907;-80
2021/01/20 02:06:49;;;;;;;;;;;6.70;99.90;;;;;;5107391;27;19918;-81
2021/01/20 02:09:15;;;;;;;;;;;6.70;99.90;;;;;;5105796;27;19908;-80
2021/01/20 02:11:59;;;;;;;;;;;6.70;99.90;;;;;;5126245;27;19945;-80
2021/01/20 02:14:24;;;;;;;;;;;6.70;99.90;;;;;;5110944;27;19912;-81
2021/01/20 02:17:25;;;;;;;;;;;6.70;99.90;;;;;;5123402;27;19919;-81
2021/01/20 02:20:03;;;;;;;;;;;6.80;99.90;;;;;;5010626;28;19924;-81
2021/01/20 02:22:32;;;;;;;;;;;6.80;99.90;;;;;;5108774;27;19990;-81
2021/01/20 02:25:04;;;;;;;;;;;6.90;99.90;;;;;;5123095;27;19968;-81
2021/01/20 02:27:35;;;;;;;;;;;6.80;99.90;;;;;;5106448;27;19911;-81
2021/01/20 02:30:06;;;;;;;;;;;6.90;99.90;;;;;;5114821;27;19915;-81
2021/01/20 02:32:31;;;;;;;;;;;6.90;99.90;;;;;;5123948;27;20330;-80
2021/01/20 02:34:57;;;;;;;;;;;6.90;99.90;;;;;;5127669;27;20075;-81
2021/01/20 02:37:23;;;;;;;;;;;6.90;99.90;;;;;;5101509;27;19960;-81
2021/01/20 02:39:48;;;;;;;;;;;6.90;99.90;;;;;;5104298;28;20008;-80
2021/01/20 02:42:14;;;;;;;;;;;6.90;99.90;;;;;;5127330;27;19921;-81
2021/01/20 02:44:39;;;;;;;;;;;6.90;99.90;;;;;;5125868;27;20401;-81
2021/01/20 02:47:06;;;;;;;;;;;6.90;99.90;;;;;;5124680;27;20445;-80
2021/01/20 02:49:32;;;;;;;;;;;6.90;99.90;;;;;;5125176;27;19908;-81
2021/01/20 02:52:04;;;;;;;;;;;6.90;99.90;;;;;;5125349;27;20018;-81
2021/01/20 02:54:29;;;;;;;;;;;6.90;99.90;;;;;;5104568;27;19953;-80
2021/01/20 02:56:57;;;;;;;;;;;6.90;99.90;;;;;;5111725;27;20335;-81
2021/01/20 02:59:25;;;;;;;;;;;6.90;99.90;;;;;;5123242;27;19926;-81
2021/01/20 03:01:51;;;;;;;;;;;6.90;99.90;;;;;;5124157;27;19911;-81
2021/01/20 03:04:17;;;;;;;;;;;6.90;99.90;;;;;;5124812;28;19908;-81
2021/01/20 03:06:44;;;;;;;;;;;6.90;99.90;;;;;;5124402;27;19907;-81
2021/01/20 03:09:11;;;;;;;;;;;6.90;99.90;;;;;;5105613;28;19914;-81
2021/01/20 03:11:45;;;;;;;;;;;6.80;99.90;;;;;;5103333;28;20286;-80
2021/01/20 03:14:10;;;;;;;;;;;6.90;99.90;;;;;;5112267;28;20359;-81
2021/01/20 03:16:36;;;;;;;;;;;6.90;99.90;;;;;;5101421;28;19908;-80
2021/01/20 03:19:01;;;;;;;;;;;6.90;99.90;;;;;;5122920;28;19912;-81
2021/01/20 03:21:27;;;;;;;;;;;6.90;99.90;;;;;;5123306;28;19918;-81
2021/01/20 03:23:52;;;;;;;;;;;6.90;99.90;;;;;;5125030;28;19912;-81
2021/01/20 03:26:18;;;;;;;;;;;6.90;99.90;;;;;;5125062;28;19907;-81
2021/01/20 03:28:43;;;;;;;;;;;6.90;99.90;;;;;;5123299;28;19915;-81
2021/01/20 03:31:08;;;;;;;;;;;6.90;99.90;;;;;;5106311;28;19908;-80
2021/01/20 03:33:34;;;;;;;;;;;6.90;99.90;;;;;;5107068;28;20005;-80
2021/01/20 03:35:59;;;;;;;;;;;7.00;99.90;;;;;;5103645;28;19923;-80
2021/01/20 03:38:25;;;;;;;;;;;7.00;99.90;;;;;;5126510;28;19915;-81
2021/01/20 03:40:50;;;;;;;;;;;7.10;99.90;;;;;;5121023;28;19911;-80
2021/01/20 03:43:16;;;;;;;;;;;7.10;99.90;;;;;;5124883;28;19914;-81
2021/01/20 03:45:41;;;;;;;;;;;7.10;99.90;;;;;;5123717;28;20393;-80
2021/01/20 03:48:07;;;;;;;;;;;7.10;99.90;;;;;;5122340;28;20274;-80
2021/01/20 03:50:32;;;;;;;;;;;7.20;99.90;;;;;;5125501;28;19977;-81
2021/01/20 03:52:57;;;;;;;;;;;7.20;99.90;;;;;;5097040;28;20002;-81
2021/01/20 03:55:23;;;;;;;;;;;7.30;99.90;;;;;;5103492;28;19912;-80
2021/01/20 03:57:50;;;;;;;;;;;7.30;99.90;;;;;;5122755;27;19922;-81
2021/01/20 04:00:16;;;;;;;;;;;7.30;99.90;;;;;;5126546;27;19927;-80
2021/01/20 04:02:41;;;;;;;;;;;7.30;99.90;;;;;;5128759;27;19908;-80
2021/01/20 04:05:07;;;;;;;;;;;7.30;99.90;;;;;;5124495;27;19996;-80
2021/01/20 04:07:33;;;;;;;;;;;7.30;99.90;;;;;;5108576;27;20291;-80
2021/01/20 04:09:58;;;;;;;;;;;7.30;99.90;;;;;;5124455;27;19922;-81
2021/01/20 04:12:24;;;;;;;;;;;7.30;99.90;;;;;;5107532;27;20377;-80
2021/01/20 04:14:50;;;;;;;;;;;7.40;99.90;;;;;;5108129;27;20310;-81
2021/01/20 04:17:15;;;;;;;;;;;7.40;99.90;;;;;;5109193;27;19908;-81
2021/01/20 04:19:41;;;;;;;;;;;7.40;99.90;;;;;;5127065;27;20374;-80
2021/01/20 04:22:06;;;;;;;;;;;7.40;99.90;;;;;;5110919;27;20003;-80
2021/01/20 04:24:32;;;;;;;;;;;7.40;99.90;;;;;;5125907;27;19961;-80
2021/01/20 04:26:57;;;;;;;;;;;7.40;99.90;;;;;;5108564;27;19953;-80
2021/01/20 04:29:22;;;;;;;;;;;7.40;99.90;;;;;;5126449;27;20388;-80
2021/01/20 04:31:48;;;;;;;;;;;7.40;99.90;;;;;;5109094;27;19907;-81
2021/01/20 04:34:13;;;;;;;;;;;7.50;99.90;;;;;;5128645;27;19911;-81
2021/01/20 04:36:39;;;;;;;;;;;7.50;99.90;;;;;;5126393;27;19907;-81
2021/01/20 04:39:04;;;;;;;;;;;7.50;99.90;;;;;;5129016;27;20256;-80
2021/01/20 04:41:32;;;;;;;;;;;7.60;99.90;;;;;;5125201;27;19920;-80
2021/01/20 04:43:57;;;;;;;;;;;7.60;99.90;;;;;;5125960;27;19908;-81
2021/01/20 04:46:23;;;;;;;;;;;7.60;99.90;;;;;;5125842;27;19912;-80
2021/01/20 04:48:49;;;;;;;;;;;7.60;99.90;;;;;;5123754;27;20480;-81
2021/01/20 04:51:17;;;;;;;;;;;7.60;99.90;;;;;;5124074;27;19908;-80
2021/01/20 04:53:43;;;;;;;;;;;7.60;99.90;;;;;;5114191;27;19912;-80
2021/01/20 04:56:11;;;;;;;;;;;7.70;99.90;;;;;;5107511;27;19907;-81
2021/01/20 04:58:36;;;;;;;;;;;7.60;99.90;;;;;;5099267;27;19908;-80
2021/01/20 05:01:02;;;;;;;;;;;7.70;99.90;;;;;;5107285;27;19911;-80
2021/01/20 05:03:28;;;;;;;;;;;7.60;99.90;;;;;;5107947;27;19914;-81
2021/01/20 05:05:54;;;;;;;;;;;7.60;99.90;;;;;;5125266;27;19919;-81
2021/01/20 05:08:19;;;;;;;;;;;7.60;99.90;;;;;;5124877;27;20383;-81
2021/01/20 05:10:46;;;;;;;;;;;7.60;99.90;;;;;;5126309;27;19954;-80
2021/01/20 05:13:25;;;;;;;;;;;7.60;99.90;;;;;;5126326;27;19907;-81
2021/01/20 05:15:50;;;;;;;;;;;7.60;99.90;;;;;;5127028;27;19950;-81
2021/01/20 05:18:16;;;;;;;;;;;7.60;99.90;;;;;;5105222;27;19954;-80
2021/01/20 05:20:41;;;;;;;;;;;7.60;99.90;;;;;;5105555;27;19960;-80
2021/01/20 05:23:07;;;;;;;;;;;7.60;99.90;;;;;;5126298;27;19913;-80
2021/01/20 05:25:37;;;;;;;;;;;7.60;99.90;;;;;;5123681;27;19911;-80
2021/01/20 05:28:16;;;;;;;;;;;7.60;99.90;;;;;;5128370;27;19968;-80
2021/01/20 05:30:52;;;;;;;;;;;7.70;99.80;;;;;;5099227;27;20355;-80
2021/01/20 05:33:21;;;;;;;;;;;7.70;99.80;;;;;;5126072;27;20006;-80
2021/01/20 05:36:02;;;;;;;;;;;7.70;99.60;;;;;;5125810;27;19907;-81
2021/01/20 05:38:32;;;;;;;;;;;7.70;99.60;;;;;;5105422;27;19907;-81
2021/01/20 05:40:57;;;;;;;;;;;7.70;99.10;;;;;;5123622;27;19915;-82
2021/01/20 05:43:25;;;;;;;;;;;7.70;99.00;;;;;;5125729;27;20377;-80
2021/01/20 05:45:51;;;;;;;;;;;7.70;98.90;;;;;;5123657;27;19908;-80
2021/01/20 05:48:16;;;;;;;;;;;7.80;98.70;;;;;;5108107;27;19915;-81
2021/01/20 05:50:55;;;;;;;;;;;7.80;98.60;;;;;;5126037;27;20021;-81
2021/01/20 05:53:20;;;;;;;;;;;7.80;98.50;;;;;;5123017;27;19916;-80
2021/01/20 05:55:59;;;;;;;;;;;7.80;98.80;;;;;;5109935;27;19956;-81
2021/01/20 05:58:35;;;;;;;;;;;7.80;98.60;;;;;;5100806;27;20378;-80
2021/01/20 06:01:04;;;;;;;;;;;7.80;98.20;;;;;;5122054;27;19924;-80
2021/01/20 06:03:29;;;;;;;;;;;7.80;98.30;;;;;;5116299;27;20069;-80
2021/01/20 06:05:55;;;;;;;;;;;7.80;98.10;;;;;;5134684;27;20016;-81
2021/01/20 06:08:20;;;;;;;;;;;7.80;98.00;;;;;;5117451;27;20388;-81
2021/01/20 06:10:46;;;;;;;;;;;7.80;98.20;;;;;;5114842;28;19912;-81
2021/01/20 06:13:11;;;;;;;;;;;7.90;97.90;;;;;;5096134;28;19908;-80
2021/01/20 06:15:37;;;;;;;;;;;7.80;97.90;;;;;;5096332;28;19937;-81
2021/01/20 06:18:05;;;;;;;;;;;7.80;98.00;;;;;;5103170;27;19911;-81
2021/01/20 06:20:30;;;;;;;;;;;7.80;98.20;;;;;;5116648;27;19918;-81
2021/01/20 06:22:57;;;;;;;;;;;7.90;97.70;;;;;;5115924;27;19907;-80
2021/01/20 06:25:29;;;;;;;;;;;7.90;97.60;;;;;;5135052;27;19914;-80
2021/01/20 06:28:05;;;;;;;;;;;7.90;97.50;;;;;;5116798;27;20011;-80
2021/01/20 06:30:34;;;;;;;;;;;7.90;97.80;;;;;;5116748;27;19911;-80
2021/01/20 06:33:03;;;;;;;;;;;7.90;97.50;;;;;;5134548;27;20346;-80
2021/01/20 06:35:42;;;;;;;;;;;7.90;97.30;;;;;;5125935;27;20367;-80
2021/01/20 06:38:27;;;;;;;;;;;7.90;97.30;;;;;;5106892;27;19939;-80
2021/01/20 06:40:56;;;;;;;;;;;7.90;97.50;;;;;;5105788;27;19915;-81
2021/01/20 06:43:31;;;;;;;;;;;7.90;97.30;;;;;;5116412;27;19931;-81
2021/01/20 06:46:10;;;;;;;;;;;7.90;97.20;;;;;;5114257;28;19908;-80
2021/01/20 06:48:54;;;;;;;;;;;7.90;97.10;;;;;;5095705;28;20279;-80
2021/01/20 06:51:19;;;;;;;;;;;7.90;97.10;;;;;;5095896;28;20264;-80
2021/01/20 06:54:05;;;;;;;;;;;8.00;97.10;;;;;;5095551;28;19953;-80
2021/01/20 06:56:30;;;;;;;;;;;8.00;97.30;;;;;;5095821;28;19908;-81
2021/01/20 06:59:15;;;;;;;;;;;7.90;97.40;;;;;;5113802;28;19920;-81
2021/01/20 07:01:40;;;;;;;;;;;7.90;97.60;;;;;;5113902;28;19953;-81
2021/01/20 07:04:06;;;;;;;;;;;7.90;97.70;;;;;;5095459;28;19912;-81
2021/01/20 07:06:34;;;;;;;;;;;8.00;97.70;;;;;;5103484;27;19925;-80
2021/01/20 07:09:00;;;;;;;;;;;8.00;97.90;;;;;;5123792;27;19912;-80
2021/01/20 07:11:26;;;;;;;;;;;8.00;97.90;;;;;;5124256;27;19908;-81
2021/01/20 07:13:51;;;;;;;;;;;8.00;97.90;;;;;;5117910;28;19912;-81
2021/01/20 07:16:17;;;;;;;;;;;8.00;97.90;;;;;;5104931;28;20256;-81
2021/01/20 07:18:46;;;;;;;;;;;8.00;98.00;;;;;;5123593;28;19915;-81
2021/01/20 07:21:12;;;;;;;;;;;8.00;98.00;;;;;;5105821;28;20412;-81
2021/01/20 07:23:37;;;;;;;;;;;8.00;98.10;;;;;;5128185;28;19915;-80
2021/01/20 07:26:04;;;;;;;;;;;8.00;98.10;;;;;;5122604;28;19911;-81
2021/01/20 07:28:29;;;;;;;;;;;8.00;98.20;;;;;;5105618;28;19959;-81
2021/01/20 07:31:04;;;;;;;;;;;8.00;98.30;;;;;;5105709;28;19911;-81
2021/01/20 07:33:30;;;;;;;;;;;8.10;98.30;;;;;;5108213;27;20056;-80
2021/01/20 07:35:56;;;;;;;;;;;8.10;98.50;;;;;;5124414;27;20011;-81
2021/01/20 07:38:30;;;;;;;;;;;8.10;98.70;;;;;;5108517;27;19907;-81
2021/01/20 07:40:56;;;;;;;;;;;8.00;98.80;;;;;;5127531;27;19912;-81
2021/01/20 07:43:22;;;;;;;;;;;8.00;99.00;;;;;;5126710;27;19912;-81
2021/01/20 07:45:48;;;;;;;;;;;8.00;99.10;;;;;;5128342;27;19907;-81
2021/01/20 07:48:14;;;;;;;;;;;8.00;99.20;;;;;;5117537;27;19915;-81
2021/01/20 07:50:41;;;;;;;;;;;8.00;99.50;;;;;;5119705;27;19907;-81
2021/01/20 07:53:09;;;;;;;;;;;8.00;99.70;;;;;;5134761;27;19920;-81
2021/01/20 07:55:35;;;;;;;;;;;8.00;99.90;;;;;;5128665;27;19929;-81
2021/01/20 07:58:00;;;;;;;;;;;8.00;99.90;;;;;;5136154;27;20258;-81
2021/01/20 08:00:26;;;;;;;;;;;8.00;99.90;;;;;;5124801;27;19919;-80
2021/01/20 08:02:52;;;;;;;;;;;8.00;99.90;;;;;;5127726;27;19911;-80
2021/01/20 08:05:17;;;;;;;;;;;8.00;99.90;;;;;;5123360;27;19907;-80
2021/01/20 08:07:43;;;;;;;;;;;8.00;99.90;;;;;;5116850;28;19911;-80
2021/01/20 08:10:18;;;;;;;;;;;8.00;99.90;;;;;;5116337;28;19908;-80
2021/01/20 08:12:45;;;;;;;;;;;8.00;99.90;;;;;;5116920;28;19911;-79
2021/01/20 08:15:11;;;;;;;;;;;7.90;99.90;;;;;;5116982;28;19955;-79
2021/01/20 08:17:36;;;;;;;;;;;8.00;99.90;;;;;;5120297;27;19911;-79
2021/01/20 08:20:02;;;;;;;;;;;7.90;99.90;;;;;;5137289;27;19919;-80
2021/01/20 08:22:28;;;;;;;;;;;7.90;99.90;;;;;;5119033;27;20078;-80
2021/01/20 08:24:54;;;;;;;;;;;7.90;99.90;;;;;;5118591;27;19917;-81
2021/01/20 08:27:29;;;;;;;;;;;7.80;99.90;;;;;;5118796;27;19959;-80
2021/01/20 08:29:56;;;;;;;;;;;7.80;99.90;;;;;;5136873;27;19915;-80
2021/01/20 08:32:21;;;;;;;;;;;7.80;99.90;;;;;;5118848;27;20378;-81
2021/01/20 08:34:48;;;;;;;;;;;7.80;99.90;;;;;;5136979;27;19907;-80
2021/01/20 08:37:18;;;;;;;;;;;7.80;99.90;;;;;;5136965;27;19937;-80
2021/01/20 08:39:52;;;;;;;;;;;7.80;99.90;;;;;;5137073;27;19947;-80
2021/01/20 08:42:21;;;;;;;;;;;7.90;99.90;;;;;;5137047;27;19921;-80
2021/01/20 08:45:06;;;;;;;;;;;7.90;99.90;;;;;;5136073;27;19907;-80
2021/01/20 08:47:34;;;;;;;;;;;7.90;99.90;;;;;;5136965;27;19908;-81
2021/01/20 08:49:59;;;;;;;;;;;7.90;99.90;;;;;;5118477;27;19973;-79
2021/01/20 08:52:25;;;;;;;;;;;7.90;99.90;;;;;;5118117;27;20273;-80
2021/01/20 08:54:51;;;;;;;;;;;7.90;99.90;;;;;;5118071;27;20432;-80
2021/01/20 08:57:20;;;;;;;;;;;8.00;99.90;;;;;;5117910;27;20375;-79
2021/01/20 08:59:55;;;;;;;;;;;8.00;99.90;;;;;;5136012;27;20393;-79
2021/01/20 09:02:21;;;;;;;;;;;8.00;99.90;;;;;;5136732;27;19911;-80
2021/01/20 09:04:47;;;;;;;;;;;8.10;99.90;;;;;;5136513;27;19960;-80
2021/01/20 09:07:13;;;;;;;;;;;8.20;99.90;;;;;;5117860;27;19907;-79
2021/01/20 09:09:38;;;;;;;;;;;8.30;99.90;;;;;;5136439;27;20423;-79
2021/01/20 09:12:05;;;;;;;;;;;8.30;99.90;;;;;;5136459;27;19914;-80
2021/01/20 09:14:30;;;;;;;;;;;8.40;99.90;;;;;;5133527;27;19907;-79
2021/01/20 09:16:56;;;;;;;;;;;8.50;99.70;;;;;;5107378;27;20040;-80
2021/01/20 09:19:23;;;;;;;;;;;8.60;99.90;;;;;;5099380;28;20002;-80
2021/01/20 09:21:49;;;;;;;;;;;8.60;99.10;;;;;;5119202;27;19922;-80
2021/01/20 09:24:15;;;;;;;;;;;8.60;99.00;;;;;;5111624;27;20316;-78
2021/01/20 09:26:40;;;;;;;;;;;8.70;98.60;;;;;;5117611;27;20014;-79
2021/01/20 09:29:05;;;;;;;;;;;8.80;98.20;;;;;;5117245;27;19961;-79
2021/01/20 09:31:31;;;;;;;;;;;8.80;98.00;;;;;;5136054;27;19907;-79
2021/01/20 09:33:56;;;;;;;;;;;8.90;97.00;;;;;;5135943;27;19908;-78
2021/01/20 09:36:22;;;;;;;;;;;9.00;96.80;;;;;;5113052;27;19918;-79
2021/01/20 09:38:47;;;;;;;;;;;9.00;96.50;;;;;;5094853;28;20002;-79
2021/01/20 09:41:12;;;;;;;;;;;9.20;95.90;;;;;;5101373;27;20306;-78
2021/01/20 09:43:39;;;;;;;;;;;9.30;95.70;;;;;;5122674;27;20287;-78
2021/01/20 09:46:05;;;;;;;;;;;9.40;94.80;;;;;;5123066;27;19914;-79
2021/01/20 09:48:30;;;;;;;;;;;9.40;93.80;;;;;;5117761;27;20349;-78
2021/01/20 09:50:56;;;;;;;;;;;9.40;94.00;;;;;;5096583;28;19908;-79
2021/01/20 09:53:21;;;;;;;;;;;9.50;93.80;;;;;;5096043;28;19907;-79
2021/01/20 09:55:47;;;;;;;;;;;9.50;93.60;;;;;;5114913;28;19912;-79
2021/01/20 09:58:13;;;;;;;;;;;9.50;93.70;;;;;;5114714;27;19977;-79
2021/01/20 10:00:38;;;;;;;;;;;9.60;94.00;;;;;;5097861;27;19959;-79
2021/01/20 10:03:09;;;;;;;;;;;9.60;94.10;;;;;;5119189;27;19907;-79
2021/01/20 10:05:35;;;;;;;;;;;9.60;93.30;;;;;;5095830;28;19911;-78
2021/01/20 10:08:01;;;;;;;;;;;9.60;92.80;;;;;;5114570;28;20394;-78
2021/01/20 10:10:26;;;;;;;;;;;9.50;93.00;;;;;;5096232;28;19933;-79
2021/01/20 10:12:54;;;;;;;;;;;9.50;92.90;;;;;;5096406;28;19923;-78
2021/01/20 10:15:19;;;;;;;;;;;9.60;91.90;;;;;;5113511;27;19919;-79
2021/01/20 10:17:45;;;;;;;;;;;9.70;91.50;;;;;;5114205;28;19908;-79
2021/01/20 10:20:10;;;;;;;;;;;9.70;91.20;;;;;;5096044;28;19950;-78
2021/01/20 10:22:36;;;;;;;;;;;9.70;91.30;;;;;;5114398;28;20362;-78
2021/01/20 10:25:02;;;;;;;;;;;9.60;91.30;;;;;;5095766;28;19953;-79
2021/01/20 10:27:27;;;;;;;;;;;9.50;91.30;;;;;;5113977;28;19908;-79
2021/01/20 10:29:53;;;;;;;;;;;9.50;90.70;;;;;;5114250;28;20342;-78
2021/01/20 10:32:18;;;;;;;;;;;9.50;90.10;;;;;;5113622;28;19908;-79
2021/01/20 10:34:44;;;;;;;;;;;9.40;90.50;;;;;;5116671;27;19926;-79
2021/01/20 10:37:09;;;;;;;;;;;9.40;90.40;;;;;;5122028;27;19908;-79
2021/01/20 10:39:35;;;;;;;;;;;9.40;89.60;;;;;;5103304;27;19922;-79
2021/01/20 10:42:00;;;;;;;;;;;9.50;89.20;;;;;;5122153;27;19918;-78
2021/01/20 10:44:25;;;;;;;;;;;9.50;88.50;;;;;;5124576;27;20387;-79
2021/01/20 10:46:51;;;;;;;;;;;9.50;87.90;;;;;;5105114;27;19907;-79
2021/01/20 10:49:16;;;;;;;;;;;9.50;88.30;;;;;;5122919;27;19911;-79
2021/01/20 10:51:42;;;;;;;;;;;9.50;86.70;;;;;;5124466;27;19946;-80
2021/01/20 10:54:07;;;;;;;;;;;9.50;85.90;;;;;;5113429;27;20363;-79
2021/01/20 10:56:33;;;;;;;;;;;9.60;86.00;;;;;;5133961;27;19908;-79
2021/01/20 10:58:59;;;;;;;;;;;9.60;86.50;;;;;;5115443;27;19968;-79
2021/01/20 11:01:24;;;;;;;;;;;9.60;85.50;;;;;;5115146;28;19912;-80
2021/01/20 11:03:50;;;;;;;;;;;9.70;84.80;;;;;;5134273;27;19908;-79
2021/01/20 11:06:15;;;;;;;;;;;9.80;84.50;;;;;;5133859;27;19908;-80
2021/01/20 11:08:41;;;;;;;;;;;9.80;83.80;;;;;;5133650;27;20002;-79
2021/01/20 11:11:07;;;;;;;;;;;9.80;83.50;;;;;;5115597;27;19954;-79
2021/01/20 11:13:33;;;;;;;;;;;9.90;84.30;;;;;;5133839;27;20052;-79
2021/01/20 11:15:58;;;;;;;;;;;9.90;84.20;;;;;;5115597;28;19915;-79
2021/01/20 11:18:25;;;;;;;;;;;9.80;84.50;;;;;;5123708;28;19912;-80
2021/01/20 11:20:50;;;;;;;;;;;9.80;84.10;;;;;;5113514;28;19916;-80
2021/01/20 11:23:17;;;;;;;;;;;9.80;84.00;;;;;;5113404;28;19908;-79
2021/01/20 11:25:44;;;;;;;;;;;9.80;83.90;;;;;;5113131;28;20000;-80
2021/01/20 11:28:10;;;;;;;;;;;9.80;83.60;;;;;;5113616;28;19907;-80
2021/01/20 11:30:35;;;;;;;;;;;9.90;83.00;;;;;;5095071;28;19937;-79
2021/01/20 11:33:00;;;;;;;;;;;10.10;82.30;;;;;;5113564;28;19950;-80
2021/01/20 11:35:26;;;;;;;;;;;10.30;81.70;;;;;;5108656;28;19912;-79
2021/01/20 11:37:56;;;;;;;;;;;10.30;81.20;;;;;;5133535;28;19912;-79
2021/01/20 11:40:22;;;;;;;;;;;10.30;79.60;;;;;;5115460;28;19919;-79
2021/01/20 11:42:48;;;;;;;;;;;10.30;80.00;;;;;;5134020;28;19957;-79
2021/01/20 11:45:13;;;;;;;;;;;10.20;80.20;;;;;;5134024;28;19919;-79
2021/01/20 11:47:39;;;;;;;;;;;10.10;80.80;;;;;;5133861;28;20359;-79
2021/01/20 11:50:05;;;;;;;;;;;10.10;81.60;;;;;;5134109;28;19957;-79
2021/01/20 11:52:30;;;;;;;;;;;10.10;81.20;;;;;;5133850;28;19913;-79
2021/01/20 11:54:56;;;;;;;;;;;10.10;79.90;;;;;;5131213;28;19945;-79
2021/01/20 11:57:21;;;;;;;;;;;10.10;81.10;;;;;;5112408;28;20359;-79
2021/01/20 11:59:47;;;;;;;;;;;10.20;80.40;;;;;;5112852;28;20319;-79
2021/01/20 12:02:12;;;;;;;;;;;10.10;80.10;;;;;;5087019;28;19958;-79
2021/01/20 12:04:38;;;;;;;;;;;10.10;80.90;;;;;;5112149;28;19912;-79
2021/01/20 12:07:03;;;;;;;;;;;10.00;82.10;;;;;;5094719;28;19918;-80
2021/01/20 12:09:28;;;;;;;;;;;10.00;81.00;;;;;;5094351;28;19994;-79
2021/01/20 12:11:54;;;;;;;;;;;9.90;80.90;;;;;;5102352;28;19908;-81
2021/01/20 12:14:19;;;;;;;;;;;9.80;82.10;;;;;;5118583;28;19908;-81
2021/01/20 12:16:45;;;;;;;;;;;9.80;81.70;;;;;;5105136;28;20357;-80
2021/01/20 12:19:12;;;;;;;;;;;9.80;80.80;;;;;;5122447;27;19911;-80
2021/01/20 12:21:37;;;;;;;;;;;9.80;80.20;;;;;;5122978;27;19922;-80
2021/01/20 12:24:03;;;;;;;;;;;9.90;80.30;;;;;;5125172;27;19911;-80
2021/01/20 12:26:28;;;;;;;;;;;9.80;80.00;;;;;;5101301;28;19908;-79
2021/01/20 12:28:54;;;;;;;;;;;9.80;79.70;;;;;;5115364;28;19923;-80
2021/01/20 12:31:19;;;;;;;;;;;9.80;80.30;;;;;;5129771;27;19912;-80
2021/01/20 12:33:45;;;;;;;;;;;9.70;81.10;;;;;;5121334;27;19911;-80
2021/01/20 12:36:11;;;;;;;;;;;9.60;81.20;;;;;;5117372;27;19908;-80
2021/01/20 12:38:36;;;;;;;;;;;9.60;81.10;;;;;;5110320;27;19907;-79
2021/01/20 12:41:01;;;;;;;;;;;9.60;80.10;;;;;;5123342;27;19959;-79
2021/01/20 12:43:27;;;;;;;;;;;9.60;80.30;;;;;;5107780;27;20316;-79
2021/01/20 12:45:52;;;;;;;;;;;9.60;80.90;;;;;;5119640;27;19912;-79
2021/01/20 12:48:19;;;;;;;;;;;9.60;81.10;;;;;;5125162;27;19919;-79
2021/01/20 12:50:45;;;;;;;;;;;9.60;81.70;;;;;;5123791;27;19950;-80
2021/01/20 12:53:13;;;;;;;;;;;9.60;80.10;;;;;;5106933;27;19947;-80
2021/01/20 12:55:38;;;;;;;;;;;9.60;80.60;;;;;;5123420;27;19916;-78
2021/01/20 12:58:04;;;;;;;;;;;9.60;81.00;;;;;;5127576;27;19926;-79
2021/01/20 13:00:29;;;;;;;;;;;9.60;82.10;;;;;;5122794;27;19924;-79
2021/01/20 13:02:55;;;;;;;;;;;9.60;82.20;;;;;;5129942;27;19908;-80
2021/01/20 13:05:20;;;;;;;;;;;9.60;81.70;;;;;;5097159;28;19957;-80
2021/01/20 13:07:46;;;;;;;;;;;9.60;81.80;;;;;;5114753;28;20002;-80
2021/01/20 13:10:11;;;;;;;;;;;9.50;81.70;;;;;;5097147;28;19908;-81
2021/01/20 13:12:37;;;;;;;;;;;9.40;83.20;;;;;;5096716;28;20275;-80
2021/01/20 13:15:03;;;;;;;;;;;9.20;84.80;;;;;;5096988;28;19908;-80
2021/01/20 13:17:30;;;;;;;;;;;9.10;85.10;;;;;;5114791;28;19912;-81
2021/01/20 13:19:56;;;;;;;;;;;9.10;85.80;;;;;;5126731;27;20038;-79
2021/01/20 13:22:21;;;;;;;;;;;9.10;86.40;;;;;;5111818;27;21348;-80
2021/01/20 13:24:47;;;;;;;;;;;9.10;85.70;;;;;;5123940;27;19934;-82
2021/01/20 13:27:12;;;;;;;;;;;9.20;84.90;;;;;;5109512;27;19908;-80
2021/01/20 13:29:38;;;;;;;;;;;9.40;83.90;;;;;;5123423;27;19911;-80
2021/01/20 13:32:08;;;;;;;;;;;9.50;83.00;;;;;;5108867;28;19919;-79
2021/01/20 13:34:34;;;;;;;;;;;9.60;81.60;;;;;;5117668;27;19911;-79
2021/01/20 13:36:59;;;;;;;;;;;9.60;81.40;;;;;;5101381;27;19907;-79
2021/01/20 13:39:25;;;;;;;;;;;9.70;81.90;;;;;;5120933;27;19965;-79
2021/01/20 13:41:50;;;;;;;;;;;9.60;82.20;;;;;;5123805;27;19912;-79
2021/01/20 13:44:15;;;;;;;;;;;9.60;82.00;;;;;;5101639;28;19981;-79
2021/01/20 13:46:42;;;;;;;;;;;9.60;82.30;;;;;;5106761;28;19919;-79
2021/01/20 13:49:07;;;;;;;;;;;9.60;82.20;;;;;;5103915;27;19907;-80
2021/01/20 13:51:32;;;;;;;;;;;9.60;82.50;;;;;;5099590;28;20002;-79
2021/01/20 13:53:58;;;;;;;;;;;9.70;81.90;;;;;;5104309;27;19920;-79
2021/01/20 13:56:25;;;;;;;;;;;9.70;82.50;;;;;;5096074;28;19923;-79
2021/01/20 13:58:55;;;;;;;;;;;9.70;81.70;;;;;;5131700;27;20434;-81
2021/01/20 14:01:23;;;;;;;;;;;9.80;80.30;;;;;;5126370;27;19950;-80
2021/01/20 14:03:49;;;;;;;;;;;9.80;80.80;;;;;;5103479;28;19908;-80
2021/01/20 14:06:15;;;;;;;;;;;9.80;81.10;;;;;;5119345;27;19912;-80
2021/01/20 14:08:40;;;;;;;;;;;9.80;80.40;;;;;;5124666;27;19919;-80
2021/01/20 14:11:06;;;;;;;;;;;9.80;81.50;;;;;;5111341;27;19908;-80
2021/01/20 14:13:31;;;;;;;;;;;9.80;81.20;;;;;;5104915;27;20278;-81
2021/01/20 14:15:57;;;;;;;;;;;9.80;82.20;;;;;;5126824;27;19908;-80
2021/01/20 14:18:22;;;;;;;;;;;9.80;81.20;;;;;;5108039;27;19907;-80
2021/01/20 14:20:47;;;;;;;;;;;9.90;81.20;;;;;;5123771;27;19918;-80
2021/01/20 14:23:13;;;;;;;;;;;9.90;82.30;;;;;;5122176;27;20367;-80
2021/01/20 14:25:41;;;;;;;;;;;9.90;80.30;;;;;;5120296;27;20303;-80